Time;durP1;ratioP1;P1;durP2;ratioP2;P2;SDS_P1;SDS_P2;PMS_P1;PMS_P2;Temp;Humidity;BMP_temperature;BMP_pressure;BME280_temperature;BME280_humidity;BME280_pressure;Samples;Min_cycle;Max_cycle;Signal;HPM_P1;HPM_P2
2023/03/18 00:00:57;;;;;;;;;;;12.20;99.90;;;;;;4999096;28;206890;-73
2023/03/18 00:03:24;;;;;;;;;;;12.20;99.90;;;;;;5056265;28;20408;-72
2023/03/18 00:05:50;;;;;;;;;;;12.20;99.90;;;;;;4955683;28;242055;-72
2023/03/18 00:08:17;;;;;;;;;;;12.20;99.90;;;;;;5062522;28;19979;-73
2023/03/18 00:10:43;;;;;;;;;;;12.20;99.90;;;;;;4993605;28;208472;-72
2023/03/18 00:13:09;;;;;;;;;;;12.20;99.90;;;;;;5073153;28;20499;-72
2023/03/18 00:15:36;;;;;;;;;;;12.20;99.90;;;;;;4990544;28;211672;-72
2023/03/18 00:18:01;;;;;;;;;;;12.20;99.90;;;;;;5074503;28;20018;-73
2023/03/18 00:20:37;;;;;;;;;;;12.20;99.90;;;;;;5003862;28;206690;-73
2023/03/18 00:23:04;;;;;;;;;;;12.20;99.90;;;;;;5081393;28;19928;-72
2023/03/18 00:25:30;;;;;;;;;;;12.20;99.90;;;;;;5008341;28;210832;-72
2023/03/18 00:27:59;;;;;;;;;;;12.10;99.90;;;;;;5061570;28;19931;-72
2023/03/18 00:30:25;;;;;;;;;;;12.10;99.90;;;;;;4997873;28;209525;-72
2023/03/18 00:32:51;;;;;;;;;;;12.20;99.90;;;;;;5072237;28;19927;-72
2023/03/18 00:35:18;;;;;;;;;;;12.10;99.90;;;;;;5010610;28;211884;-72
2023/03/18 00:37:47;;;;;;;;;;;12.10;99.90;;;;;;5080965;28;19928;-72
2023/03/18 00:40:19;;;;;;;;;;;12.10;99.90;;;;;;4984528;28;207776;-72
2023/03/18 00:42:50;;;;;;;;;;;12.10;99.90;;;;;;5053993;28;19936;-72
2023/03/18 00:45:16;;;;;;;;;;;12.10;99.90;;;;;;4976210;28;206283;-72
2023/03/18 00:47:43;;;;;;;;;;;12.00;99.90;;;;;;5053838;28;20142;-72
2023/03/18 00:50:09;;;;;;;;;;;12.00;99.90;;;;;;4974664;28;206800;-72
2023/03/18 00:52:36;;;;;;;;;;;11.90;99.90;;;;;;5050773;28;20428;-72
2023/03/18 00:55:02;;;;;;;;;;;11.80;99.90;;;;;;5017565;28;208955;-72
2023/03/18 00:57:28;;;;;;;;;;;11.80;99.90;;;;;;5071040;28;19921;-71
2023/03/18 01:00:03;;;;;;;;;;;11.70;99.90;;;;;;5017676;28;207593;-73
2023/03/18 01:02:29;;;;;;;;;;;11.60;99.90;;;;;;5081392;28;19924;-72
2023/03/18 01:04:55;;;;;;;;;;;11.60;99.90;;;;;;5001144;28;211174;-73
2023/03/18 01:07:25;;;;;;;;;;;11.50;99.90;;;;;;5036208;28;20370;-72
2023/03/18 01:09:51;;;;;;;;;;;11.50;99.90;;;;;;5004492;28;276201;-73
2023/03/18 01:12:16;;;;;;;;;;;11.40;99.90;;;;;;5082071;28;20296;-73
2023/03/18 01:14:43;;;;;;;;;;;11.30;99.90;;;;;;5005004;28;210424;-73
2023/03/18 01:17:09;;;;;;;;;;;11.20;99.90;;;;;;5047537;28;19921;-73
2023/03/18 01:19:36;;;;;;;;;;;11.20;99.90;;;;;;5010160;28;212837;-73
2023/03/18 01:22:02;;;;;;;;;;;11.20;99.90;;;;;;5061447;28;20471;-72
2023/03/18 01:24:28;;;;;;;;;;;11.10;99.90;;;;;;5024683;28;209713;-73
2023/03/18 01:26:54;;;;;;;;;;;11.10;99.90;;;;;;5059967;28;19935;-73
2023/03/18 01:29:22;;;;;;;;;;;11.10;99.90;;;;;;5019208;28;218395;-73
2023/03/18 01:31:48;;;;;;;;;;;11.10;99.90;;;;;;5079005;28;19927;-72
2023/03/18 01:34:15;;;;;;;;;;;11.00;99.90;;;;;;5035802;28;206734;-72
2023/03/18 01:36:45;;;;;;;;;;;11.00;99.90;;;;;;5094810;27;19943;-72
2023/03/18 01:39:14;;;;;;;;;;;11.00;99.90;;;;;;5020552;28;210028;-72
2023/03/18 01:41:40;;;;;;;;;;;11.00;99.90;;;;;;5060137;28;19921;-72
2023/03/18 01:44:12;;;;;;;;;;;10.90;99.90;;;;;;5007828;28;185753;-72
2023/03/18 01:46:39;;;;;;;;;;;10.90;99.90;;;;;;5040279;28;19943;-73
2023/03/18 01:49:09;;;;;;;;;;;10.90;99.90;;;;;;4987459;28;273084;-73
2023/03/18 01:51:35;;;;;;;;;;;10.90;99.90;;;;;;5037543;28;20038;-72
2023/03/18 01:54:03;;;;;;;;;;;10.90;99.90;;;;;;5005856;28;205537;-73
2023/03/18 01:56:29;;;;;;;;;;;10.90;99.90;;;;;;5057731;28;20309;-72
2023/03/18 01:58:58;;;;;;;;;;;10.80;99.90;;;;;;5043273;28;212209;-72
2023/03/18 02:01:25;;;;;;;;;;;10.80;99.90;;;;;;5059860;28;19947;-72
2023/03/18 02:03:52;;;;;;;;;;;10.80;99.90;;;;;;4985990;28;213680;-73
2023/03/18 02:06:18;;;;;;;;;;;10.80;99.90;;;;;;5033595;28;19920;-72
2023/03/18 02:08:47;;;;;;;;;;;10.70;99.90;;;;;;5012792;28;209528;-71
2023/03/18 02:11:13;;;;;;;;;;;10.80;99.90;;;;;;5082224;28;19939;-72
2023/03/18 02:13:41;;;;;;;;;;;10.70;99.90;;;;;;5034114;28;211745;-72
2023/03/18 02:16:13;;;;;;;;;;;10.70;99.90;;;;;;5081646;28;19920;-72
2023/03/18 02:19:02;;;;;;;;;;;10.70;99.90;;;;;;5034513;28;208212;-72
2023/03/18 02:21:48;;;;;;;;;;;10.70;99.90;;;;;;5086938;27;19923;-72
2023/03/18 02:24:14;;;;;;;;;;;10.70;99.90;;;;;;5030344;28;209196;-73
2023/03/18 02:26:50;;;;;;;;;;;10.60;99.90;;;;;;5079168;28;19935;-71
2023/03/18 02:29:17;;;;;;;;;;;10.60;99.90;;;;;;5005161;28;248596;-72
2023/03/18 02:31:43;;;;;;;;;;;10.50;99.90;;;;;;5064452;28;19924;-72
2023/03/18 02:34:10;;;;;;;;;;;10.50;99.90;;;;;;5023845;28;208525;-73
2023/03/18 02:36:36;;;;;;;;;;;10.40;99.90;;;;;;5037569;28;19947;-72
2023/03/18 02:39:03;;;;;;;;;;;10.40;99.90;;;;;;5004616;28;209585;-72
2023/03/18 02:41:33;;;;;;;;;;;10.30;99.90;;;;;;5047448;28;19924;-73
2023/03/18 02:43:59;;;;;;;;;;;10.20;99.90;;;;;;5014129;28;245145;-73
2023/03/18 02:46:25;;;;;;;;;;;10.20;99.90;;;;;;5079175;28;19930;-72
2023/03/18 02:48:51;;;;;;;;;;;10.20;99.90;;;;;;5020226;28;211188;-73
2023/03/18 02:51:18;;;;;;;;;;;10.10;99.90;;;;;;5046057;28;19924;-73
2023/03/18 02:53:46;;;;;;;;;;;10.10;99.90;;;;;;4998970;28;212228;-72
2023/03/18 02:56:13;;;;;;;;;;;10.10;99.90;;;;;;5088053;28;19936;-73
2023/03/18 02:58:40;;;;;;;;;;;10.10;99.90;;;;;;5004550;28;239689;-73
2023/03/18 03:01:07;;;;;;;;;;;10.00;99.90;;;;;;5036154;28;19924;-72
2023/03/18 03:03:33;;;;;;;;;;;10.00;99.90;;;;;;5045629;28;208511;-72
2023/03/18 03:05:59;;;;;;;;;;;10.00;99.90;;;;;;5016056;28;165759;-72
2023/03/18 03:08:26;;;;;;;;;;;10.00;99.90;;;;;;5076634;28;19954;-72
2023/03/18 03:10:52;;;;;;;;;;;10.00;99.90;;;;;;4988221;28;205153;-74
2023/03/18 03:13:19;;;;;;;;;;;10.00;99.90;;;;;;5058944;28;19932;-73
2023/03/18 03:15:45;;;;;;;;;;;10.00;99.90;;;;;;4992061;28;219873;-72
2023/03/18 03:18:11;;;;;;;;;;;10.00;99.90;;;;;;5058064;28;19921;-72
2023/03/18 03:20:37;;;;;;;;;;;10.00;99.90;;;;;;4979286;28;181527;-72
2023/03/18 03:23:05;;;;;;;;;;;10.00;99.90;;;;;;5077909;28;20234;-73
2023/03/18 03:25:31;;;;;;;;;;;10.00;99.90;;;;;;4921119;28;1810019;-73
2023/03/18 03:27:57;;;;;;;;;;;10.00;99.90;;;;;;5057659;28;19924;-73
2023/03/18 03:30:25;;;;;;;;;;;10.00;99.90;;;;;;5007295;28;162266;-73
2023/03/18 03:32:51;;;;;;;;;;;10.00;99.90;;;;;;5060672;28;19930;-73
2023/03/18 03:35:18;;;;;;;;;;;10.00;99.90;;;;;;5028443;27;237485;-73
2023/03/18 03:37:44;;;;;;;;;;;10.00;99.90;;;;;;5081340;28;19928;-72
2023/03/18 03:40:14;;;;;;;;;;;9.90;99.90;;;;;;5000872;28;221108;-73
2023/03/18 03:42:40;;;;;;;;;;;9.80;99.90;;;;;;5057638;28;20388;-72
2023/03/18 03:45:07;;;;;;;;;;;9.80;99.90;;;;;;5018464;28;185550;-71
2023/03/18 03:47:33;;;;;;;;;;;9.80;99.90;;;;;;5060491;28;20415;-72
2023/03/18 03:49:58;;;;;;;;;;;9.80;99.90;;;;;;4997814;28;203162;-72
2023/03/18 03:52:25;;;;;;;;;;;9.70;99.90;;;;;;5049322;28;20112;-72
2023/03/18 03:54:51;;;;;;;;;;;9.70;99.90;;;;;;4998913;28;211763;-73
2023/03/18 03:57:17;;;;;;;;;;;9.70;99.90;;;;;;5067208;28;19928;-72
2023/03/18 03:59:43;;;;;;;;;;;9.70;99.90;;;;;;5026001;28;217858;-72
2023/03/18 04:02:09;;;;;;;;;;;9.60;99.90;;;;;;5064236;28;19923;-73
2023/03/18 04:04:35;;;;;;;;;;;9.60;99.90;;;;;;4995659;28;211739;-73
2023/03/18 04:07:02;;;;;;;;;;;9.60;99.90;;;;;;5062989;28;20409;-72
2023/03/18 04:09:28;;;;;;;;;;;9.60;99.90;;;;;;5020212;28;182421;-72
2023/03/18 04:11:54;;;;;;;;;;;9.60;99.90;;;;;;5058945;28;19928;-71
2023/03/18 04:14:20;;;;;;;;;;;9.60;99.90;;;;;;5002675;28;205172;-72
2023/03/18 04:16:46;;;;;;;;;;;9.60;99.90;;;;;;5050946;28;19928;-72
2023/03/18 04:19:11;;;;;;;;;;;9.60;99.90;;;;;;5011594;28;150455;-73
2023/03/18 04:21:37;;;;;;;;;;;9.60;99.90;;;;;;5046614;28;19924;-72
2023/03/18 04:24:03;;;;;;;;;;;9.60;99.90;;;;;;5010004;28;216807;-72
2023/03/18 04:26:30;;;;;;;;;;;9.60;99.90;;;;;;5078831;28;19920;-73
2023/03/18 04:28:56;;;;;;;;;;;9.60;99.90;;;;;;5001748;28;211735;-72
2023/03/18 04:31:22;;;;;;;;;;;9.60;99.90;;;;;;5032161;28;20386;-72
2023/03/18 04:33:48;;;;;;;;;;;9.60;99.90;;;;;;4999133;28;229504;-72
2023/03/18 04:36:14;;;;;;;;;;;9.60;99.90;;;;;;5052062;28;19920;-73
2023/03/18 04:38:41;;;;;;;;;;;9.60;99.90;;;;;;5027604;28;209538;-71
2023/03/18 04:41:07;;;;;;;;;;;9.60;99.90;;;;;;5048970;28;19924;-72
2023/03/18 04:43:33;;;;;;;;;;;9.60;99.90;;;;;;5061980;28;19932;-72
2023/03/18 04:45:59;;;;;;;;;;;9.60;99.90;;;;;;4986159;28;251979;-72
2023/03/18 04:48:25;;;;;;;;;;;9.60;99.90;;;;;;5077345;28;19931;-72
2023/03/18 04:50:52;;;;;;;;;;;9.60;99.90;;;;;;5014936;28;209150;-72
2023/03/18 04:53:18;;;;;;;;;;;9.60;99.90;;;;;;5076194;28;19920;-73
2023/03/18 04:55:45;;;;;;;;;;;9.60;99.90;;;;;;4987254;28;206601;-72
2023/03/18 04:58:11;;;;;;;;;;;9.60;99.90;;;;;;5063296;28;19935;-72
2023/03/18 05:00:37;;;;;;;;;;;9.60;99.90;;;;;;4990602;28;201416;-72
2023/03/18 05:03:04;;;;;;;;;;;9.60;99.90;;;;;;5075417;28;20370;-71
2023/03/18 05:05:30;;;;;;;;;;;9.60;99.90;;;;;;4980028;28;200607;-71
2023/03/18 05:07:56;;;;;;;;;;;9.70;99.90;;;;;;5078768;28;19943;-72
2023/03/18 05:10:22;;;;;;;;;;;9.70;99.90;;;;;;5003761;28;178500;-72
2023/03/18 05:12:49;;;;;;;;;;;9.70;99.90;;;;;;5058949;28;19947;-72
2023/03/18 05:15:15;;;;;;;;;;;9.70;99.90;;;;;;5005346;28;208769;-73
2023/03/18 05:17:41;;;;;;;;;;;9.70;99.90;;;;;;5057998;28;19927;-72
2023/03/18 05:20:09;;;;;;;;;;;9.80;99.90;;;;;;5005515;28;208808;-72
2023/03/18 05:22:35;;;;;;;;;;;9.80;99.90;;;;;;5055368;28;19951;-72
2023/03/18 05:25:01;;;;;;;;;;;9.80;99.90;;;;;;4991376;28;210003;-72
2023/03/18 05:27:28;;;;;;;;;;;9.80;99.90;;;;;;5056246;28;19931;-72
2023/03/18 05:29:54;;;;;;;;;;;9.80;99.90;;;;;;5001533;28;188010;-72
2023/03/18 05:32:20;;;;;;;;;;;9.80;99.90;;;;;;5074470;28;19928;-72
2023/03/18 05:34:46;;;;;;;;;;;9.70;99.90;;;;;;5026554;28;198090;-73
2023/03/18 05:37:13;;;;;;;;;;;9.70;99.90;;;;;;5051032;28;19920;-72
2023/03/18 05:39:39;;;;;;;;;;;9.70;99.90;;;;;;5018585;28;210159;-72
2023/03/18 05:42:05;;;;;;;;;;;9.70;99.90;;;;;;5063078;28;20636;-72
2023/03/18 05:44:31;;;;;;;;;;;9.70;99.90;;;;;;4997541;28;209718;-73
2023/03/18 05:46:59;;;;;;;;;;;9.70;99.90;;;;;;5036182;28;19929;-72
2023/03/18 05:49:26;;;;;;;;;;;9.70;99.90;;;;;;5001292;28;208708;-72
2023/03/18 05:51:52;;;;;;;;;;;9.70;99.90;;;;;;5076977;28;19935;-72
2023/03/18 05:54:18;;;;;;;;;;;9.60;99.90;;;;;;5011034;28;244783;-71
2023/03/18 05:56:44;;;;;;;;;;;9.70;99.90;;;;;;5051167;28;19936;-71
2023/03/18 05:59:11;;;;;;;;;;;9.70;99.90;;;;;;5003351;28;213367;-72
2023/03/18 06:01:37;;;;;;;;;;;9.70;99.90;;;;;;5053508;28;19928;-71
2023/03/18 06:04:05;;;;;;;;;;;9.70;99.90;;;;;;4893831;28;3000859;-72
2023/03/18 06:06:31;;;;;;;;;;;9.70;99.90;;;;;;5066032;28;20507;-71
2023/03/18 06:08:57;;;;;;;;;;;9.70;99.90;;;;;;5015675;28;208783;-71
2023/03/18 06:11:23;;;;;;;;;;;9.70;99.90;;;;;;5078705;28;19931;-72
2023/03/18 06:13:49;;;;;;;;;;;9.70;99.90;;;;;;5008373;28;253646;-72
2023/03/18 06:16:15;;;;;;;;;;;9.70;99.90;;;;;;5047716;28;19921;-72
2023/03/18 06:18:41;;;;;;;;;;;9.70;99.90;;;;;;5023651;28;231342;-72
2023/03/18 06:21:08;;;;;;;;;;;9.70;99.90;;;;;;5069110;28;20214;-72
2023/03/18 06:23:37;;;;;;;;;;;9.70;99.90;;;;;;5047549;28;208377;-72
2023/03/18 06:26:03;;;;;;;;;;;9.80;99.90;;;;;;5014546;28;20515;-72
2023/03/18 06:28:29;;;;;;;;;;;9.80;99.90;;;;;;5079886;28;19967;-72
2023/03/18 06:30:56;;;;;;;;;;;9.80;99.90;;;;;;4996491;28;123530;-71
2023/03/18 06:33:22;;;;;;;;;;;9.80;99.90;;;;;;5044067;28;19925;-70
2023/03/18 06:35:48;;;;;;;;;;;9.80;99.90;;;;;;4986303;28;217924;-73
2023/03/18 06:38:15;;;;;;;;;;;9.80;99.90;;;;;;5060479;28;19936;-71
2023/03/18 06:40:44;;;;;;;;;;;9.80;99.90;;;;;;4999099;28;218611;-72
2023/03/18 06:43:10;;;;;;;;;;;9.90;99.90;;;;;;5082638;28;22004;-71
2023/03/18 06:45:36;;;;;;;;;;;9.90;99.90;;;;;;4986250;28;207656;-71
2023/03/18 06:48:02;;;;;;;;;;;9.90;99.90;;;;;;5061345;28;20481;-72
2023/03/18 06:50:29;;;;;;;;;;;9.90;99.90;;;;;;4996725;28;171254;-71
2023/03/18 06:52:55;;;;;;;;;;;9.90;99.90;;;;;;5040841;28;19924;-72
2023/03/18 06:55:21;;;;;;;;;;;10.00;99.90;;;;;;5014499;28;229254;-72
2023/03/18 06:57:47;;;;;;;;;;;10.00;99.90;;;;;;5062608;28;19928;-71
2023/03/18 07:00:13;;;;;;;;;;;10.10;99.90;;;;;;4998221;28;249664;-71
2023/03/18 07:02:39;;;;;;;;;;;10.30;99.90;;;;;;5058124;28;19933;-71
2023/03/18 07:05:06;;;;;;;;;;;10.30;99.90;;;;;;4992659;28;236539;-71
2023/03/18 07:07:32;;;;;;;;;;;10.40;99.90;;;;;;5069648;28;19927;-71
2023/03/18 07:09:59;;;;;;;;;;;10.50;99.90;;;;;;5011471;28;208830;-71
2023/03/18 07:12:25;;;;;;;;;;;10.50;99.90;;;;;;5061116;28;19927;-71
2023/03/18 07:14:52;;;;;;;;;;;10.60;99.90;;;;;;5017731;28;208995;-71
2023/03/18 07:17:18;;;;;;;;;;;10.70;99.90;;;;;;5077294;28;19923;-71
2023/03/18 07:19:44;;;;;;;;;;;10.80;99.90;;;;;;5002032;28;212249;-72
2023/03/18 07:22:10;;;;;;;;;;;10.80;99.90;;;;;;5076485;28;19974;-72
2023/03/18 07:24:36;;;;;;;;;;;10.90;99.90;;;;;;5013385;28;209937;-72
2023/03/18 07:27:03;;;;;;;;;;;10.90;99.90;;;;;;5052686;28;19932;-71
2023/03/18 07:29:29;;;;;;;;;;;11.00;99.90;;;;;;5001965;28;208388;-70
2023/03/18 07:31:55;;;;;;;;;;;11.00;99.90;;;;;;5063882;28;20372;-71
2023/03/18 07:34:21;;;;;;;;;;;11.00;99.90;;;;;;5014714;28;205302;-71
2023/03/18 07:36:47;;;;;;;;;;;11.10;99.90;;;;;;5036605;28;19929;-71
2023/03/18 07:39:15;;;;;;;;;;;11.00;99.90;;;;;;5014436;28;181231;-70
2023/03/18 07:41:41;;;;;;;;;;;11.00;99.90;;;;;;5057629;28;19928;-71
2023/03/18 07:44:08;;;;;;;;;;;11.00;99.90;;;;;;5003879;28;215452;-70
2023/03/18 07:46:34;;;;;;;;;;;11.00;99.90;;;;;;5056366;28;20335;-71
2023/03/18 07:49:00;;;;;;;;;;;11.00;99.90;;;;;;5010485;27;207508;-72
2023/03/18 07:51:26;;;;;;;;;;;11.00;99.90;;;;;;5082737;28;19947;-72
2023/03/18 07:53:52;;;;;;;;;;;10.90;99.90;;;;;;5000842;28;213207;-72
2023/03/18 07:56:19;;;;;;;;;;;10.90;99.90;;;;;;5063280;28;19924;-71
2023/03/18 07:58:45;;;;;;;;;;;10.90;99.90;;;;;;5000836;28;230053;-71
2023/03/18 08:01:11;;;;;;;;;;;10.90;99.90;;;;;;5057754;28;20022;-73
2023/03/18 08:03:37;;;;;;;;;;;10.90;99.90;;;;;;5033335;28;208439;-71
2023/03/18 08:06:03;;;;;;;;;;;10.90;99.90;;;;;;5014321;28;150384;-72
2023/03/18 08:08:29;;;;;;;;;;;10.90;99.90;;;;;;5074656;28;19997;-72
2023/03/18 08:10:56;;;;;;;;;;;10.90;99.90;;;;;;4990005;28;208503;-71
2023/03/18 08:13:24;;;;;;;;;;;10.90;99.90;;;;;;5060714;28;19932;-71
2023/03/18 08:15:50;;;;;;;;;;;10.90;99.90;;;;;;5009699;28;213110;-72
2023/03/18 08:18:17;;;;;;;;;;;10.90;99.90;;;;;;5078433;28;20541;-71
2023/03/18 08:20:43;;;;;;;;;;;10.90;99.90;;;;;;4995667;28;208945;-71
2023/03/18 08:23:09;;;;;;;;;;;11.00;99.90;;;;;;5076836;28;19924;-71
2023/03/18 08:25:35;;;;;;;;;;;11.00;99.90;;;;;;5011287;28;209099;-71
2023/03/18 08:28:01;;;;;;;;;;;11.10;99.90;;;;;;5058703;28;19924;-71
2023/03/18 08:30:27;;;;;;;;;;;11.10;99.90;;;;;;5032715;28;206754;-73
2023/03/18 08:32:54;;;;;;;;;;;11.10;99.90;;;;;;5086495;28;19931;-71
2023/03/18 08:35:20;;;;;;;;;;;11.20;99.90;;;;;;5009624;28;205083;-72
2023/03/18 08:37:47;;;;;;;;;;;11.20;99.90;;;;;;5054110;28;20386;-72
2023/03/18 08:40:13;;;;;;;;;;;11.20;99.90;;;;;;5003601;28;278885;-71
2023/03/18 08:42:39;;;;;;;;;;;11.30;99.90;;;;;;5081614;28;19928;-72
2023/03/18 08:45:05;;;;;;;;;;;11.30;99.90;;;;;;5001029;28;211475;-71
2023/03/18 08:47:31;;;;;;;;;;;11.40;99.90;;;;;;5056065;28;20218;-71
2023/03/18 08:49:57;;;;;;;;;;;11.40;99.90;;;;;;4985287;28;210929;-71
2023/03/18 08:52:24;;;;;;;;;;;11.40;99.90;;;;;;5052659;28;19925;-71
2023/03/18 08:54:50;;;;;;;;;;;11.40;99.90;;;;;;4990197;28;210818;-70
2023/03/18 08:57:17;;;;;;;;;;;11.50;99.90;;;;;;5060479;28;19924;-71
2023/03/18 08:59:43;;;;;;;;;;;11.50;99.90;;;;;;4953828;28;1484082;-71
2023/03/18 09:02:18;;;;;;;;;;;11.70;99.90;;;;;;5066214;28;19957;-71
2023/03/18 09:04:44;;;;;;;;;;;11.80;99.90;;;;;;4985831;28;209440;-71
2023/03/18 09:07:11;;;;;;;;;;;11.90;99.90;;;;;;5043928;28;19931;-72
2023/03/18 09:09:38;;;;;;;;;;;12.00;99.90;;;;;;4992492;28;209048;-71
2023/03/18 09:12:05;;;;;;;;;;;12.10;99.90;;;;;;5055654;28;19924;-72
2023/03/18 09:14:31;;;;;;;;;;;12.10;99.90;;;;;;5016579;28;205687;-70
2023/03/18 09:16:58;;;;;;;;;;;12.30;99.90;;;;;;5066250;28;19924;-71
2023/03/18 09:19:25;;;;;;;;;;;12.60;99.90;;;;;;5034420;27;211634;-71
2023/03/18 09:21:50;;;;;;;;;;;12.90;99.90;;;;;;5098402;27;19931;-71
2023/03/18 09:24:17;;;;;;;;;;;13.40;99.90;;;;;;5006261;28;208385;-71
2023/03/18 09:26:43;;;;;;;;;;;13.90;99.90;;;;;;5033578;28;19935;-72
2023/03/18 09:29:10;;;;;;;;;;;13.70;99.90;;;;;;5005614;28;170949;-72
2023/03/18 09:31:36;;;;;;;;;;;13.60;99.90;;;;;;5045237;28;20450;-72
2023/03/18 09:34:02;;;;;;;;;;;13.70;99.90;;;;;;5015885;28;208363;-71
2023/03/18 09:36:28;;;;;;;;;;;14.50;99.90;;;;;;5026527;28;19928;-71
2023/03/18 09:38:54;;;;;;;;;;;15.50;99.90;;;;;;5001787;28;213733;-71
2023/03/18 09:41:28;;;;;;;;;;;16.10;99.90;;;;;;5081159;28;20296;-72
2023/03/18 09:44:13;;;;;;;;;;;16.80;99.90;;;;;;5016370;28;208847;-72
2023/03/18 09:46:58;;;;;;;;;;;17.40;99.90;;;;;;5060916;28;19925;-72
2023/03/18 09:49:30;;;;;;;;;;;17.90;99.90;;;;;;5019312;28;207044;-70
2023/03/18 09:52:03;;;;;;;;;;;18.10;99.90;;;;;;5073385;28;20298;-72
2023/03/18 09:54:39;;;;;;;;;;;17.70;99.90;;;;;;5026950;28;207580;-72
2023/03/18 09:57:11;;;;;;;;;;;17.10;99.90;;;;;;5085056;28;19923;-71
2023/03/18 09:59:40;;;;;;;;;;;16.50;99.90;;;;;;5018482;28;208874;-71
2023/03/18 10:02:17;;;;;;;;;;;16.10;99.90;;;;;;5073091;28;19924;-72
2023/03/18 10:04:44;;;;;;;;;;;15.80;99.90;;;;;;5003806;28;25979;-71
2023/03/18 10:07:12;;;;;;;;;;;15.90;99.90;;;;;;5060687;28;20372;-71
2023/03/18 10:09:43;;;;;;;;;;;16.40;99.90;;;;;;5012915;28;161295;-71
2023/03/18 10:12:15;;;;;;;;;;;16.10;99.90;;;;;;5068487;28;20461;-72
2023/03/18 10:14:48;;;;;;;;;;;16.10;99.90;;;;;;5014328;28;206706;-72
2023/03/18 10:17:14;;;;;;;;;;;16.10;99.90;;;;;;5067301;28;19921;-71
2023/03/18 10:19:47;;;;;;;;;;;15.80;99.90;;;;;;4997720;28;250675;-71
2023/03/18 10:22:13;;;;;;;;;;;15.50;99.90;;;;;;5065740;28;19924;-73
2023/03/18 10:25:15;;;;;;;;;;;15.10;99.90;;;;;;4994287;28;208029;-71
2023/03/18 10:28:15;;;;;;;;;;;14.80;99.90;;;;;;4979642;28;20092;-71
2023/03/18 10:30:51;;;;;;;;;;;14.80;99.90;;;;;;4876354;28;206720;-71
2023/03/18 10:33:34;;;;;;;;;;;14.70;99.90;;;;;;4963589;28;19930;-72
2023/03/18 10:36:07;;;;;;;;;;;14.60;99.90;;;;;;4899473;28;207465;-72
2023/03/18 10:38:38;;;;;;;;;;;14.50;99.90;;;;;;4950045;28;19926;-72
2023/03/18 10:41:26;;;;;;;;;;;14.10;99.90;;;;;;4889101;28;205239;-72
2023/03/18 10:43:53;;;;;;;;;;;14.20;99.90;;;;;;4868946;28;210098;-72
2023/03/18 10:46:20;;;;;;;;;;;14.30;99.90;;;;;;4950405;28;19941;-72
2023/03/18 10:48:48;;;;;;;;;;;14.50;99.90;;;;;;4908621;28;233143;-71
2023/03/18 10:51:34;;;;;;;;;;;14.70;99.90;;;;;;4954948;28;19930;-71
2023/03/18 10:54:06;;;;;;;;;;;15.30;99.90;;;;;;4892226;28;213787;-71
2023/03/18 10:56:33;;;;;;;;;;;16.00;99.90;;;;;;4933975;28;19922;-71
2023/03/18 10:59:00;;;;;;;;;;;16.80;99.90;;;;;;4905785;28;221906;-72
2023/03/18 11:01:27;;;;;;;;;;;17.50;99.90;;;;;;4966872;28;20460;-72
2023/03/18 11:03:58;;;;;;;;;;;17.40;99.90;;;;;;4914451;28;214996;-71
2023/03/18 11:06:50;;;;;;;;;;;17.40;99.90;;;;;;5023211;28;19935;-71
2023/03/18 11:09:18;;;;;;;;;;;17.50;99.90;;;;;;5008843;28;207085;-71
2023/03/18 11:11:45;;;;;;;;;;;18.20;99.90;;;;;;5060182;28;19933;-74
2023/03/18 11:14:16;;;;;;;;;;;17.70;99.90;;;;;;4990906;28;212764;-73
2023/03/18 11:16:45;;;;;;;;;;;17.30;99.90;;;;;;5079895;28;19924;-73
2023/03/18 11:19:30;;;;;;;;;;;17.00;99.90;;;;;;5004034;28;214098;-73
2023/03/18 11:22:03;;;;;;;;;;;16.80;99.90;;;;;;5063647;28;19920;-72
2023/03/18 11:24:38;;;;;;;;;;;16.80;99.90;;;;;;5017273;28;211237;-75
2023/03/18 11:27:13;;;;;;;;;;;17.20;99.90;;;;;;5068179;28;19940;-72
2023/03/18 11:29:40;;;;;;;;;;;18.30;99.90;;;;;;4998364;28;206827;-74
2023/03/18 11:32:21;;;;;;;;;;;19.20;99.90;;;;;;5041711;28;19929;-74
2023/03/18 11:34:52;;;;;;;;;;;19.70;99.90;;;;;;5009431;28;209336;-73
2023/03/18 11:37:18;;;;;;;;;;;20.40;99.90;;;;;;5063229;28;19931;-74
2023/03/18 11:39:44;;;;;;;;;;;20.70;99.80;;;;;;4978407;28;276566;-74
2023/03/18 11:42:20;;;;;;;;;;;20.90;98.70;;;;;;5049379;28;20368;-73
2023/03/18 11:44:48;;;;;;;;;;;20.50;98.50;;;;;;5008008;28;208948;-73
2023/03/18 11:47:19;;;;;;;;;;;20.80;98.90;;;;;;5056206;28;19931;-73
2023/03/18 11:49:45;;;;;;;;;;;21.10;98.00;;;;;;4999124;28;177463;-73
2023/03/18 11:52:14;;;;;;;;;;;21.40;97.90;;;;;;5064316;28;19924;-74
2023/03/18 11:54:43;;;;;;;;;;;21.60;97.20;;;;;;5027237;28;214815;-74
2023/03/18 11:57:29;;;;;;;;;;;22.00;97.70;;;;;;5085251;28;19924;-74
2023/03/18 11:59:55;;;;;;;;;;;21.60;96.60;;;;;;5010764;28;233659;-73
2023/03/18 12:02:27;;;;;;;;;;;20.80;96.90;;;;;;5060464;28;19924;-74
2023/03/18 12:04:56;;;;;;;;;;;20.70;97.30;;;;;;4983069;28;211173;-73
2023/03/18 12:07:31;;;;;;;;;;;20.30;98.60;;;;;;5045314;28;19936;-73
2023/03/18 12:10:16;;;;;;;;;;;20.30;97.70;;;;;;4994883;28;221495;-74
2023/03/18 12:12:52;;;;;;;;;;;20.80;97.90;;;;;;5058527;28;19924;-74
2023/03/18 12:15:23;;;;;;;;;;;21.40;97.60;;;;;;5021759;28;238491;-74
2023/03/18 12:17:58;;;;;;;;;;;22.00;96.70;;;;;;5082674;28;20006;-74
2023/03/18 12:20:46;;;;;;;;;;;21.90;96.50;;;;;;5008360;28;209932;-74
2023/03/18 12:23:31;;;;;;;;;;;22.10;97.00;;;;;;5060788;28;19920;-74
2023/03/18 12:26:29;;;;;;;;;;;22.40;97.00;;;;;;5022169;28;209956;-75
2023/03/18 12:29:16;;;;;;;;;;;22.30;96.30;;;;;;4983599;28;223394;-74
2023/03/18 12:31:50;;;;;;;;;;;21.90;96.20;;;;;;5072051;28;19935;-73
2023/03/18 12:34:35;;;;;;;;;;;21.00;97.00;;;;;;5005040;28;209482;-74
2023/03/18 12:37:09;;;;;;;;;;;20.20;97.00;;;;;;5069695;28;19928;-74
2023/03/18 12:39:58;;;;;;;;;;;19.90;97.30;;;;;;5011258;28;208740;-74
2023/03/18 12:42:33;;;;;;;;;;;19.60;97.90;;;;;;5040632;28;19928;-73
2023/03/18 12:45:22;;;;;;;;;;;19.30;98.20;;;;;;4999810;28;211709;-73
2023/03/18 12:47:50;;;;;;;;;;;19.20;98.60;;;;;;5035774;28;19967;-73
2023/03/18 12:50:22;;;;;;;;;;;19.00;98.10;;;;;;4994862;28;212704;-74
2023/03/18 12:52:53;;;;;;;;;;;18.70;98.30;;;;;;5039158;28;20332;-74
2023/03/18 12:55:20;;;;;;;;;;;18.60;98.60;;;;;;4983626;28;208969;-73
2023/03/18 12:57:51;;;;;;;;;;;18.60;98.80;;;;;;5023545;28;20433;-74
2023/03/18 13:00:22;;;;;;;;;;;18.90;98.60;;;;;;4976099;28;78134;-74
2023/03/18 13:03:03;;;;;;;;;;;18.90;98.40;;;;;;5058833;28;19924;-74
2023/03/18 13:05:51;;;;;;;;;;;19.00;97.90;;;;;;4976440;28;206973;-74
2023/03/18 13:08:26;;;;;;;;;;;18.80;98.20;;;;;;5064472;28;19924;-73
2023/03/18 13:11:15;;;;;;;;;;;18.50;98.50;;;;;;4990103;28;207973;-74
2023/03/18 13:13:44;;;;;;;;;;;18.20;98.80;;;;;;5006383;28;210645;-74
2023/03/18 13:16:12;;;;;;;;;;;18.20;99.00;;;;;;5050048;28;20445;-73
2023/03/18 13:18:42;;;;;;;;;;;18.00;99.20;;;;;;5033636;28;189540;-74
2023/03/18 13:21:12;;;;;;;;;;;17.90;99.10;;;;;;5023094;28;19928;-74
2023/03/18 13:23:57;;;;;;;;;;;17.80;99.10;;;;;;5029083;28;209851;-75
2023/03/18 13:27:01;;;;;;;;;;;17.70;99.40;;;;;;5023939;28;19927;-74
2023/03/18 13:29:37;;;;;;;;;;;17.70;99.50;;;;;;4968587;28;207329;-74
2023/03/18 13:32:15;;;;;;;;;;;17.90;99.60;;;;;;5013896;28;19925;-74
2023/03/18 13:34:49;;;;;;;;;;;17.90;99.40;;;;;;4976950;28;212230;-75
2023/03/18 13:37:34;;;;;;;;;;;18.00;99.20;;;;;;5010975;28;19925;-74
2023/03/18 13:40:04;;;;;;;;;;;17.90;98.70;;;;;;4973601;28;206242;-73
2023/03/18 13:42:32;;;;;;;;;;;17.60;98.80;;;;;;5028848;28;19935;-74
2023/03/18 13:45:07;;;;;;;;;;;17.60;99.10;;;;;;4964002;28;74657;-72
2023/03/18 13:47:36;;;;;;;;;;;17.50;99.00;;;;;;5022380;28;19925;-75
2023/03/18 13:50:05;;;;;;;;;;;17.60;99.30;;;;;;4985871;28;206647;-74
2023/03/18 13:52:41;;;;;;;;;;;17.70;99.40;;;;;;5031169;28;19929;-74
2023/03/18 13:55:19;;;;;;;;;;;17.70;99.00;;;;;;4980852;28;187825;-75
2023/03/18 13:57:46;;;;;;;;;;;17.80;99.20;;;;;;5026229;28;19929;-73
2023/03/18 14:00:15;;;;;;;;;;;17.90;98.90;;;;;;5002439;28;206978;-74
2023/03/18 14:02:44;;;;;;;;;;;17.90;99.00;;;;;;5063513;28;19928;-74
2023/03/18 14:05:28;;;;;;;;;;;18.00;99.10;;;;;;4996131;28;207360;-74
2023/03/18 14:07:54;;;;;;;;;;;18.10;99.30;;;;;;5088057;28;19920;-73
2023/03/18 14:10:20;;;;;;;;;;;18.20;98.80;;;;;;4975892;28;222276;-74
2023/03/18 14:12:47;;;;;;;;;;;18.10;98.90;;;;;;5061603;28;19975;-74
2023/03/18 14:15:13;;;;;;;;;;;17.80;99.20;;;;;;4996430;28;209126;-73
2023/03/18 14:17:47;;;;;;;;;;;17.60;99.30;;;;;;5076884;28;20376;-73
2023/03/18 14:20:19;;;;;;;;;;;17.60;99.60;;;;;;5041435;28;209505;-75
2023/03/18 14:22:46;;;;;;;;;;;17.50;99.70;;;;;;5071926;28;20273;-73
2023/03/18 14:25:12;;;;;;;;;;;17.50;99.80;;;;;;5021792;28;208619;-73